sensor_id;sensor_type;location;lat;lon;timestamp;P1;durP1;ratioP1;P2;durP2;ratioP2
10920;SDS011;5513;50.580;8.818;2023-02-28T00:01:35;6.60;;;3.93;;
10920;SDS011;5513;50.580;8.818;2023-02-28T00:04:04;4.83;;;3.80;;
10920;SDS011;5513;50.580;8.818;2023-02-28T00:06:32;6.53;;;3.50;;
10920;SDS011;5513;50.580;8.818;2023-02-28T00:09:00;5.97;;;3.60;;
10920;SDS011;5513;50.580;8.818;2023-02-28T00:11:29;5.37;;;3.53;;
10920;SDS011;5513;50.580;8.818;2023-02-28T00:13:57;6.10;;;3.87;;
10920;SDS011;5513;50.580;8.818;2023-02-28T00:16:26;5.77;;;3.87;;
10920;SDS011;5513;50.580;8.818;2023-02-28T00:18:56;6.47;;;3.80;;
10920;SDS011;5513;50.580;8.818;2023-02-28T00:21:24;4.30;;;3.90;;
10920;SDS011;5513;50.580;8.818;2023-02-28T00:23:53;5.63;;;4.23;;
10920;SDS011;5513;50.580;8.818;2023-02-28T00:26:22;5.00;;;3.37;;
10920;SDS011;5513;50.580;8.818;2023-02-28T00:28:51;4.50;;;3.50;;
10920;SDS011;5513;50.580;8.818;2023-02-28T00:31:20;4.73;;;3.40;;
10920;SDS011;5513;50.580;8.818;2023-02-28T00:33:48;5.87;;;3.50;;
10920;SDS011;5513;50.580;8.818;2023-02-28T00:36:19;4.40;;;3.13;;
10920;SDS011;5513;50.580;8.818;2023-02-28T00:38:48;4.73;;;3.37;;
10920;SDS011;5513;50.580;8.818;2023-02-28T00:41:16;4.93;;;3.70;;
10920;SDS011;5513;50.580;8.818;2023-02-28T00:43:45;4.77;;;3.20;;
10920;SDS011;5513;50.580;8.818;2023-02-28T00:46:13;6.10;;;4.00;;
10920;SDS011;5513;50.580;8.818;2023-02-28T00:48:41;4.57;;;2.97;;
10920;SDS011;5513;50.580;8.818;2023-02-28T00:51:11;5.00;;;3.27;;
10920;SDS011;5513;50.580;8.818;2023-02-28T00:53:41;4.90;;;3.67;;
10920;SDS011;5513;50.580;8.818;2023-02-28T00:56:10;5.20;;;3.40;;
10920;SDS011;5513;50.580;8.818;2023-02-28T00:58:38;4.23;;;3.63;;
10920;SDS011;5513;50.580;8.818;2023-02-28T01:01:08;4.03;;;2.83;;
10920;SDS011;5513;50.580;8.818;2023-02-28T01:03:36;5.37;;;3.70;;
10920;SDS011;5513;50.580;8.818;2023-02-28T01:06:05;4.40;;;3.40;;
10920;SDS011;5513;50.580;8.818;2023-02-28T01:08:33;4.23;;;3.27;;
10920;SDS011;5513;50.580;8.818;2023-02-28T01:11:08;5.20;;;3.07;;
10920;SDS011;5513;50.580;8.818;2023-02-28T01:13:37;4.77;;;3.40;;
10920;SDS011;5513;50.580;8.818;2023-02-28T01:16:06;4.10;;;2.93;;
10920;SDS011;5513;50.580;8.818;2023-02-28T01:18:35;5.67;;;3.57;;
10920;SDS011;5513;50.580;8.818;2023-02-28T01:21:04;5.10;;;3.50;;
10920;SDS011;5513;50.580;8.818;2023-02-28T01:23:33;4.33;;;3.47;;
10920;SDS011;5513;50.580;8.818;2023-02-28T01:26:05;5.03;;;3.50;;
10920;SDS011;5513;50.580;8.818;2023-02-28T01:28:36;4.20;;;3.50;;
10920;SDS011;5513;50.580;8.818;2023-02-28T01:31:05;4.87;;;3.90;;
10920;SDS011;5513;50.580;8.818;2023-02-28T01:33:33;5.63;;;3.80;;
10920;SDS011;5513;50.580;8.818;2023-02-28T01:36:02;5.23;;;3.80;;
10920;SDS011;5513;50.580;8.818;2023-02-28T01:38:33;4.53;;;3.60;;
10920;SDS011;5513;50.580;8.818;2023-02-28T01:41:02;6.13;;;3.77;;
10920;SDS011;5513;50.580;8.818;2023-02-28T01:43:35;4.90;;;4.27;;
10920;SDS011;5513;50.580;8.818;2023-02-28T01:46:22;6.40;;;4.07;;
10920;SDS011;5513;50.580;8.818;2023-02-28T01:48:51;7.70;;;3.97;;
10920;SDS011;5513;50.580;8.818;2023-02-28T01:51:24;5.43;;;4.17;;
10920;SDS011;5513;50.580;8.818;2023-02-28T01:53:58;5.33;;;4.20;;
10920;SDS011;5513;50.580;8.818;2023-02-28T01:56:30;5.20;;;4.03;;
10920;SDS011;5513;50.580;8.818;2023-02-28T01:59:05;7.10;;;3.83;;
10920;SDS011;5513;50.580;8.818;2023-02-28T02:01:33;5.33;;;4.47;;
10920;SDS011;5513;50.580;8.818;2023-02-28T02:04:02;8.37;;;4.10;;
10920;SDS011;5513;50.580;8.818;2023-02-28T02:06:34;5.43;;;4.10;;
10920;SDS011;5513;50.580;8.818;2023-02-28T02:09:05;5.53;;;4.10;;
10920;SDS011;5513;50.580;8.818;2023-02-28T02:11:33;5.77;;;4.43;;
10920;SDS011;5513;50.580;8.818;2023-02-28T02:17:20;12.97;;;4.13;;
10920;SDS011;5513;50.580;8.818;2023-02-28T02:20:10;5.47;;;3.73;;
10920;SDS011;5513;50.580;8.818;2023-02-28T02:23:03;6.20;;;3.80;;
10920;SDS011;5513;50.580;8.818;2023-02-28T02:25:48;5.50;;;4.07;;
10920;SDS011;5513;50.580;8.818;2023-02-28T02:28:35;6.17;;;4.00;;
10920;SDS011;5513;50.580;8.818;2023-02-28T02:34:16;4.70;;;3.70;;
10920;SDS011;5513;50.580;8.818;2023-02-28T02:36:56;5.93;;;4.00;;
10920;SDS011;5513;50.580;8.818;2023-02-28T02:39:34;4.23;;;3.53;;
10920;SDS011;5513;50.580;8.818;2023-02-28T02:42:12;5.93;;;3.70;;
10920;SDS011;5513;50.580;8.818;2023-02-28T02:44:46;5.20;;;3.63;;
10920;SDS011;5513;50.580;8.818;2023-02-28T02:47:20;4.60;;;3.60;;
10920;SDS011;5513;50.580;8.818;2023-02-28T02:49:55;5.00;;;3.37;;
10920;SDS011;5513;50.580;8.818;2023-02-28T02:52:29;5.03;;;3.77;;
10920;SDS011;5513;50.580;8.818;2023-02-28T02:55:02;6.07;;;3.73;;
10920;SDS011;5513;50.580;8.818;2023-02-28T02:57:34;5.53;;;4.40;;
10920;SDS011;5513;50.580;8.818;2023-02-28T03:00:06;5.87;;;4.23;;
10920;SDS011;5513;50.580;8.818;2023-02-28T03:02:36;4.73;;;3.90;;
10920;SDS011;5513;50.580;8.818;2023-02-28T03:05:12;4.10;;;3.50;;
10920;SDS011;5513;50.580;8.818;2023-02-28T03:07:47;6.30;;;3.93;;
10920;SDS011;5513;50.580;8.818;2023-02-28T03:13:17;5.10;;;3.93;;
10920;SDS011;5513;50.580;8.818;2023-02-28T03:16:08;6.70;;;4.10;;
10920;SDS011;5513;50.580;8.818;2023-02-28T03:18:52;5.70;;;4.07;;
10920;SDS011;5513;50.580;8.818;2023-02-28T03:21:29;5.83;;;4.33;;
10920;SDS011;5513;50.580;8.818;2023-02-28T03:24:04;6.20;;;4.30;;
10920;SDS011;5513;50.580;8.818;2023-02-28T03:26:36;6.50;;;4.53;;
10920;SDS011;5513;50.580;8.818;2023-02-28T03:29:10;6.03;;;3.90;;
10920;SDS011;5513;50.580;8.818;2023-02-28T03:31:44;6.40;;;4.30;;
10920;SDS011;5513;50.580;8.818;2023-02-28T03:34:19;5.70;;;4.27;;
10920;SDS011;5513;50.580;8.818;2023-02-28T03:36:56;5.57;;;4.13;;
10920;SDS011;5513;50.580;8.818;2023-02-28T03:39:31;5.47;;;4.23;;
10920;SDS011;5513;50.580;8.818;2023-02-28T03:42:05;5.47;;;4.23;;
10920;SDS011;5513;50.580;8.818;2023-02-28T03:44:40;5.40;;;4.33;;
10920;SDS011;5513;50.580;8.818;2023-02-28T03:47:12;5.37;;;4.27;;
10920;SDS011;5513;50.580;8.818;2023-02-28T03:49:46;5.67;;;4.13;;
10920;SDS011;5513;50.580;8.818;2023-02-28T03:52:22;6.80;;;4.67;;
10920;SDS011;5513;50.580;8.818;2023-02-28T03:54:56;5.77;;;4.90;;
10920;SDS011;5513;50.580;8.818;2023-02-28T03:57:33;6.03;;;4.63;;
10920;SDS011;5513;50.580;8.818;2023-02-28T04:00:08;6.80;;;4.60;;
10920;SDS011;5513;50.580;8.818;2023-02-28T04:02:40;5.77;;;4.43;;
10920;SDS011;5513;50.580;8.818;2023-02-28T04:05:08;7.97;;;4.80;;
10920;SDS011;5513;50.580;8.818;2023-02-28T04:07:38;7.70;;;4.60;;
10920;SDS011;5513;50.580;8.818;2023-02-28T04:10:07;6.90;;;4.70;;
10920;SDS011;5513;50.580;8.818;2023-02-28T04:12:36;6.37;;;4.20;;
10920;SDS011;5513;50.580;8.818;2023-02-28T04:15:05;6.63;;;4.70;;
10920;SDS011;5513;50.580;8.818;2023-02-28T04:17:35;7.30;;;4.63;;
10920;SDS011;5513;50.580;8.818;2023-02-28T04:20:03;6.37;;;5.23;;
10920;SDS011;5513;50.580;8.818;2023-02-28T04:22:36;18.40;;;14.97;;
10920;SDS011;5513;50.580;8.818;2023-02-28T04:25:08;13.83;;;8.07;;
10920;SDS011;5513;50.580;8.818;2023-02-28T04:27:36;16.53;;;11.87;;
10920;SDS011;5513;50.580;8.818;2023-02-28T04:30:05;8.23;;;7.00;;
10920;SDS011;5513;50.580;8.818;2023-02-28T04:32:35;7.80;;;5.53;;
10920;SDS011;5513;50.580;8.818;2023-02-28T04:35:04;6.30;;;5.20;;
10920;SDS011;5513;50.580;8.818;2023-02-28T04:37:37;8.60;;;5.90;;
10920;SDS011;5513;50.580;8.818;2023-02-28T04:40:08;7.00;;;5.20;;
10920;SDS011;5513;50.580;8.818;2023-02-28T04:42:37;8.07;;;4.60;;
10920;SDS011;5513;50.580;8.818;2023-02-28T04:45:06;7.93;;;5.40;;
10920;SDS011;5513;50.580;8.818;2023-02-28T04:47:36;6.07;;;4.97;;
10920;SDS011;5513;50.580;8.818;2023-02-28T04:50:05;5.77;;;4.47;;
10920;SDS011;5513;50.580;8.818;2023-02-28T04:52:34;8.03;;;5.60;;
10920;SDS011;5513;50.580;8.818;2023-02-28T04:55:02;8.13;;;5.57;;
10920;SDS011;5513;50.580;8.818;2023-02-28T04:57:33;6.93;;;4.90;;
10920;SDS011;5513;50.580;8.818;2023-02-28T05:00:02;5.47;;;4.43;;
10920;SDS011;5513;50.580;8.818;2023-02-28T05:02:38;6.00;;;4.37;;
10920;SDS011;5513;50.580;8.818;2023-02-28T05:05:06;6.47;;;4.50;;
10920;SDS011;5513;50.580;8.818;2023-02-28T05:07:35;6.57;;;4.00;;
10920;SDS011;5513;50.580;8.818;2023-02-28T05:10:03;5.87;;;4.30;;
10920;SDS011;5513;50.580;8.818;2023-02-28T05:12:33;6.43;;;4.20;;
10920;SDS011;5513;50.580;8.818;2023-02-28T05:15:02;7.17;;;4.30;;
10920;SDS011;5513;50.580;8.818;2023-02-28T05:17:31;6.03;;;4.30;;
10920;SDS011;5513;50.580;8.818;2023-02-28T05:19:59;4.83;;;4.00;;
10920;SDS011;5513;50.580;8.818;2023-02-28T05:22:40;5.07;;;3.77;;
10920;SDS011;5513;50.580;8.818;2023-02-28T05:25:11;5.93;;;4.20;;
10920;SDS011;5513;50.580;8.818;2023-02-28T05:27:45;6.93;;;4.07;;
10920;SDS011;5513;50.580;8.818;2023-02-28T05:30:13;5.80;;;3.70;;
10920;SDS011;5513;50.580;8.818;2023-02-28T05:32:42;8.83;;;5.20;;
10920;SDS011;5513;50.580;8.818;2023-02-28T05:35:10;8.93;;;5.90;;
10920;SDS011;5513;50.580;8.818;2023-02-28T05:37:39;7.63;;;4.77;;
10920;SDS011;5513;50.580;8.818;2023-02-28T05:40:08;7.23;;;4.50;;
10920;SDS011;5513;50.580;8.818;2023-02-28T05:42:38;6.40;;;4.30;;
10920;SDS011;5513;50.580;8.818;2023-02-28T05:45:09;6.00;;;4.00;;
10920;SDS011;5513;50.580;8.818;2023-02-28T05:47:41;4.73;;;3.43;;
10920;SDS011;5513;50.580;8.818;2023-02-28T05:50:09;6.83;;;3.77;;
10920;SDS011;5513;50.580;8.818;2023-02-28T05:52:38;5.00;;;3.67;;
10920;SDS011;5513;50.580;8.818;2023-02-28T05:55:07;5.67;;;3.43;;
10920;SDS011;5513;50.580;8.818;2023-02-28T05:57:36;7.90;;;4.30;;
10920;SDS011;5513;50.580;8.818;2023-02-28T06:00:05;5.73;;;3.83;;
10920;SDS011;5513;50.580;8.818;2023-02-28T06:02:36;6.53;;;4.00;;
10920;SDS011;5513;50.580;8.818;2023-02-28T06:05:07;6.03;;;3.80;;
10920;SDS011;5513;50.580;8.818;2023-02-28T06:07:40;6.07;;;3.80;;
10920;SDS011;5513;50.580;8.818;2023-02-28T06:10:08;8.47;;;4.27;;
10920;SDS011;5513;50.580;8.818;2023-02-28T06:12:38;6.53;;;4.40;;
10920;SDS011;5513;50.580;8.818;2023-02-28T06:15:09;7.53;;;3.93;;
10920;SDS011;5513;50.580;8.818;2023-02-28T06:17:41;11.80;;;5.10;;
10920;SDS011;5513;50.580;8.818;2023-02-28T06:20:10;7.10;;;4.40;;
10920;SDS011;5513;50.580;8.818;2023-02-28T06:22:41;6.63;;;4.30;;
10920;SDS011;5513;50.580;8.818;2023-02-28T06:25:09;8.03;;;5.00;;
10920;SDS011;5513;50.580;8.818;2023-02-28T06:27:38;7.30;;;4.77;;
10920;SDS011;5513;50.580;8.818;2023-02-28T06:30:06;11.10;;;8.33;;
10920;SDS011;5513;50.580;8.818;2023-02-28T06:32:35;15.50;;;13.97;;
10920;SDS011;5513;50.580;8.818;2023-02-28T06:35:06;8.33;;;6.67;;
10920;SDS011;5513;50.580;8.818;2023-02-28T06:37:35;8.30;;;5.87;;
10920;SDS011;5513;50.580;8.818;2023-02-28T06:40:07;6.57;;;5.07;;
10920;SDS011;5513;50.580;8.818;2023-02-28T06:42:36;10.73;;;5.77;;
10920;SDS011;5513;50.580;8.818;2023-02-28T06:45:05;7.10;;;5.60;;
10920;SDS011;5513;50.580;8.818;2023-02-28T06:47:36;7.13;;;4.87;;
10920;SDS011;5513;50.580;8.818;2023-02-28T06:50:07;8.07;;;5.80;;
10920;SDS011;5513;50.580;8.818;2023-02-28T06:52:36;13.13;;;6.90;;
10920;SDS011;5513;50.580;8.818;2023-02-28T06:55:06;7.13;;;5.13;;
10920;SDS011;5513;50.580;8.818;2023-02-28T06:57:35;5.70;;;5.00;;
10920;SDS011;5513;50.580;8.818;2023-02-28T07:00:04;5.20;;;3.83;;
10920;SDS011;5513;50.580;8.818;2023-02-28T07:02:35;6.73;;;5.63;;
10920;SDS011;5513;50.580;8.818;2023-02-28T07:05:04;7.43;;;5.53;;
10920;SDS011;5513;50.580;8.818;2023-02-28T07:07:35;37.50;;;22.10;;
10920;SDS011;5513;50.580;8.818;2023-02-28T07:10:07;28.27;;;15.63;;
10920;SDS011;5513;50.580;8.818;2023-02-28T07:12:37;50.93;;;27.03;;
10920;SDS011;5513;50.580;8.818;2023-02-28T07:15:05;20.57;;;12.37;;
10920;SDS011;5513;50.580;8.818;2023-02-28T07:17:35;19.37;;;11.53;;
10920;SDS011;5513;50.580;8.818;2023-02-28T07:20:04;7.63;;;5.00;;
10920;SDS011;5513;50.580;8.818;2023-02-28T07:22:35;6.30;;;5.43;;
10920;SDS011;5513;50.580;8.818;2023-02-28T07:25:03;7.17;;;6.37;;
10920;SDS011;5513;50.580;8.818;2023-02-28T07:27:32;6.10;;;4.50;;
10920;SDS011;5513;50.580;8.818;2023-02-28T07:30:00;4.97;;;3.90;;
10920;SDS011;5513;50.580;8.818;2023-02-28T07:32:30;7.23;;;4.40;;
10920;SDS011;5513;50.580;8.818;2023-02-28T07:34:58;6.47;;;4.27;;
10920;SDS011;5513;50.580;8.818;2023-02-28T07:37:26;6.53;;;4.80;;
10920;SDS011;5513;50.580;8.818;2023-02-28T07:39:59;4.87;;;3.97;;
10920;SDS011;5513;50.580;8.818;2023-02-28T07:42:32;4.37;;;3.43;;
10920;SDS011;5513;50.580;8.818;2023-02-28T07:45:02;8.50;;;3.53;;
10920;SDS011;5513;50.580;8.818;2023-02-28T07:47:32;5.20;;;3.80;;
10920;SDS011;5513;50.580;8.818;2023-02-28T07:50:00;4.73;;;4.00;;
10920;SDS011;5513;50.580;8.818;2023-02-28T07:52:29;6.17;;;3.17;;
10920;SDS011;5513;50.580;8.818;2023-02-28T07:55:07;4.90;;;3.60;;
10920;SDS011;5513;50.580;8.818;2023-02-28T07:57:36;4.30;;;3.30;;
10920;SDS011;5513;50.580;8.818;2023-02-28T08:00:06;4.00;;;3.40;;
10920;SDS011;5513;50.580;8.818;2023-02-28T08:02:37;4.93;;;3.10;;
10920;SDS011;5513;50.580;8.818;2023-02-28T08:05:06;4.60;;;3.60;;
10920;SDS011;5513;50.580;8.818;2023-02-28T08:07:35;8.13;;;5.30;;
10920;SDS011;5513;50.580;8.818;2023-02-28T08:10:06;6.57;;;4.00;;
10920;SDS011;5513;50.580;8.818;2023-02-28T08:12:36;4.90;;;3.53;;
10920;SDS011;5513;50.580;8.818;2023-02-28T08:15:05;4.70;;;3.63;;
10920;SDS011;5513;50.580;8.818;2023-02-28T08:17:34;6.90;;;4.10;;
10920;SDS011;5513;50.580;8.818;2023-02-28T08:20:02;6.30;;;2.90;;
10920;SDS011;5513;50.580;8.818;2023-02-28T08:22:31;3.80;;;3.33;;
10920;SDS011;5513;50.580;8.818;2023-02-28T08:24:59;6.20;;;3.57;;
10920;SDS011;5513;50.580;8.818;2023-02-28T08:27:29;4.57;;;3.03;;
10920;SDS011;5513;50.580;8.818;2023-02-28T08:29:58;3.90;;;2.90;;
10920;SDS011;5513;50.580;8.818;2023-02-28T08:32:26;5.03;;;2.80;;
10920;SDS011;5513;50.580;8.818;2023-02-28T08:34:56;6.70;;;3.07;;
10920;SDS011;5513;50.580;8.818;2023-02-28T08:37:24;3.57;;;2.80;;
10920;SDS011;5513;50.580;8.818;2023-02-28T08:39:52;4.37;;;2.80;;
10920;SDS011;5513;50.580;8.818;2023-02-28T08:42:22;4.90;;;2.97;;
10920;SDS011;5513;50.580;8.818;2023-02-28T08:44:52;4.67;;;3.10;;
10920;SDS011;5513;50.580;8.818;2023-02-28T08:47:20;3.77;;;2.73;;
10920;SDS011;5513;50.580;8.818;2023-02-28T08:49:49;5.37;;;2.80;;
10920;SDS011;5513;50.580;8.818;2023-02-28T08:52:17;3.00;;;2.70;;
10920;SDS011;5513;50.580;8.818;2023-02-28T08:54:45;4.60;;;3.00;;
10920;SDS011;5513;50.580;8.818;2023-02-28T08:57:14;4.90;;;3.03;;
10920;SDS011;5513;50.580;8.818;2023-02-28T08:59:42;4.63;;;2.60;;
10920;SDS011;5513;50.580;8.818;2023-02-28T09:02:13;3.67;;;2.80;;
10920;SDS011;5513;50.580;8.818;2023-02-28T09:04:43;2.80;;;2.30;;
10920;SDS011;5513;50.580;8.818;2023-02-28T09:07:12;3.53;;;2.60;;
10920;SDS011;5513;50.580;8.818;2023-02-28T09:09:40;3.13;;;2.40;;
10920;SDS011;5513;50.580;8.818;2023-02-28T09:12:20;2.83;;;2.20;;
10920;SDS011;5513;50.580;8.818;2023-02-28T09:14:49;3.77;;;2.50;;
10920;SDS011;5513;50.580;8.818;2023-02-28T09:17:18;2.73;;;2.50;;
10920;SDS011;5513;50.580;8.818;2023-02-28T09:19:48;3.20;;;2.50;;
10920;SDS011;5513;50.580;8.818;2023-02-28T09:22:16;3.83;;;3.23;;
10920;SDS011;5513;50.580;8.818;2023-02-28T09:24:45;4.27;;;2.80;;
10920;SDS011;5513;50.580;8.818;2023-02-28T09:27:13;5.30;;;2.60;;
10920;SDS011;5513;50.580;8.818;2023-02-28T09:29:41;4.77;;;3.37;;
10920;SDS011;5513;50.580;8.818;2023-02-28T09:32:09;3.67;;;2.63;;
10920;SDS011;5513;50.580;8.818;2023-02-28T09:34:39;3.00;;;2.40;;
10920;SDS011;5513;50.580;8.818;2023-02-28T09:37:09;4.83;;;2.53;;
10920;SDS011;5513;50.580;8.818;2023-02-28T09:39:38;4.40;;;2.60;;
10920;SDS011;5513;50.580;8.818;2023-02-28T09:42:11;3.20;;;2.40;;
10920;SDS011;5513;50.580;8.818;2023-02-28T09:44:48;3.87;;;2.37;;
10920;SDS011;5513;50.580;8.818;2023-02-28T09:47:21;4.00;;;3.00;;
10920;SDS011;5513;50.580;8.818;2023-02-28T09:49:59;3.37;;;2.77;;
10920;SDS011;5513;50.580;8.818;2023-02-28T09:52:36;3.60;;;2.97;;
10920;SDS011;5513;50.580;8.818;2023-02-28T09:55:12;3.60;;;2.67;;
10920;SDS011;5513;50.580;8.818;2023-02-28T09:57:47;3.53;;;2.87;;
10920;SDS011;5513;50.580;8.818;2023-02-28T10:00:19;3.83;;;3.00;;
10920;SDS011;5513;50.580;8.818;2023-02-28T10:03:04;10.37;;;5.63;;
10920;SDS011;5513;50.580;8.818;2023-02-28T10:05:43;4.37;;;3.00;;
10920;SDS011;5513;50.580;8.818;2023-02-28T10:08:19;3.27;;;2.80;;
10920;SDS011;5513;50.580;8.818;2023-02-28T10:10:54;3.00;;;2.67;;
10920;SDS011;5513;50.580;8.818;2023-02-28T10:13:26;3.47;;;2.77;;
10920;SDS011;5513;50.580;8.818;2023-02-28T10:15:59;5.37;;;3.20;;
10920;SDS011;5513;50.580;8.818;2023-02-28T10:18:40;3.17;;;2.60;;
10920;SDS011;5513;50.580;8.818;2023-02-28T10:21:19;4.17;;;3.13;;
10920;SDS011;5513;50.580;8.818;2023-02-28T10:23:49;3.77;;;2.83;;
10920;SDS011;5513;50.580;8.818;2023-02-28T10:26:24;3.43;;;3.07;;
10920;SDS011;5513;50.580;8.818;2023-02-28T10:28:57;5.40;;;3.30;;
10920;SDS011;5513;50.580;8.818;2023-02-28T10:31:25;5.70;;;3.10;;
10920;SDS011;5513;50.580;8.818;2023-02-28T10:33:53;3.47;;;2.83;;
10920;SDS011;5513;50.580;8.818;2023-02-28T10:36:24;4.43;;;3.40;;
10920;SDS011;5513;50.580;8.818;2023-02-28T10:38:53;4.37;;;3.13;;
10920;SDS011;5513;50.580;8.818;2023-02-28T10:41:27;6.57;;;3.37;;
10920;SDS011;5513;50.580;8.818;2023-02-28T10:44:13;4.57;;;3.73;;
10920;SDS011;5513;50.580;8.818;2023-02-28T10:46:43;4.90;;;3.40;;
10920;SDS011;5513;50.580;8.818;2023-02-28T10:49:12;4.67;;;3.40;;
10920;SDS011;5513;50.580;8.818;2023-02-28T10:51:50;4.50;;;3.30;;
10920;SDS011;5513;50.580;8.818;2023-02-28T10:54:24;5.13;;;3.57;;
10920;SDS011;5513;50.580;8.818;2023-02-28T10:57:06;3.73;;;3.40;;
10920;SDS011;5513;50.580;8.818;2023-02-28T10:59:36;4.60;;;3.53;;
10920;SDS011;5513;50.580;8.818;2023-02-28T11:02:14;4.40;;;3.40;;
10920;SDS011;5513;50.580;8.818;2023-02-28T11:05:04;6.73;;;3.77;;
10920;SDS011;5513;50.580;8.818;2023-02-28T11:07:53;4.63;;;3.60;;
10920;SDS011;5513;50.580;8.818;2023-02-28T11:10:24;4.27;;;3.60;;
10920;SDS011;5513;50.580;8.818;2023-02-28T11:12:56;5.27;;;3.43;;
10920;SDS011;5513;50.580;8.818;2023-02-28T11:15:27;5.17;;;3.37;;
10920;SDS011;5513;50.580;8.818;2023-02-28T11:17:58;5.80;;;3.50;;
10920;SDS011;5513;50.580;8.818;2023-02-28T11:20:29;3.97;;;3.40;;
10920;SDS011;5513;50.580;8.818;2023-02-28T11:23:02;6.17;;;4.30;;
10920;SDS011;5513;50.580;8.818;2023-02-28T11:25:32;4.90;;;3.60;;
10920;SDS011;5513;50.580;8.818;2023-02-28T11:28:03;5.37;;;3.63;;
10920;SDS011;5513;50.580;8.818;2023-02-28T11:30:34;7.17;;;4.17;;
10920;SDS011;5513;50.580;8.818;2023-02-28T11:33:23;7.30;;;4.00;;
10920;SDS011;5513;50.580;8.818;2023-02-28T11:35:56;6.33;;;4.27;;
10920;SDS011;5513;50.580;8.818;2023-02-28T11:38:28;6.13;;;4.03;;
10920;SDS011;5513;50.580;8.818;2023-02-28T11:41:04;4.80;;;3.63;;
10920;SDS011;5513;50.580;8.818;2023-02-28T11:43:45;6.03;;;3.90;;
10920;SDS011;5513;50.580;8.818;2023-02-28T11:46:29;4.17;;;3.57;;
10920;SDS011;5513;50.580;8.818;2023-02-28T11:49:06;5.13;;;3.60;;
10920;SDS011;5513;50.580;8.818;2023-02-28T11:51:49;4.67;;;3.90;;
10920;SDS011;5513;50.580;8.818;2023-02-28T11:54:27;6.00;;;3.83;;
10920;SDS011;5513;50.580;8.818;2023-02-28T11:57:11;5.77;;;4.70;;
10920;SDS011;5513;50.580;8.818;2023-02-28T11:59:51;4.57;;;3.93;;
10920;SDS011;5513;50.580;8.818;2023-02-28T12:02:29;6.40;;;5.60;;
10920;SDS011;5513;50.580;8.818;2023-02-28T12:05:11;6.30;;;4.60;;
10920;SDS011;5513;50.580;8.818;2023-02-28T12:07:52;4.40;;;4.00;;
10920;SDS011;5513;50.580;8.818;2023-02-28T12:10:32;6.87;;;4.73;;
10920;SDS011;5513;50.580;8.818;2023-02-28T12:13:08;4.97;;;3.50;;
10920;SDS011;5513;50.580;8.818;2023-02-28T12:18:55;4.73;;;3.70;;
10920;SDS011;5513;50.580;8.818;2023-02-28T12:21:38;4.67;;;4.03;;
10920;SDS011;5513;50.580;8.818;2023-02-28T12:27:19;5.60;;;3.73;;
10920;SDS011;5513;50.580;8.818;2023-02-28T12:29:54;7.83;;;4.43;;
10920;SDS011;5513;50.580;8.818;2023-02-28T12:32:27;5.93;;;3.87;;
10920;SDS011;5513;50.580;8.818;2023-02-28T12:35:01;4.50;;;3.27;;
10920;SDS011;5513;50.580;8.818;2023-02-28T12:37:33;5.10;;;3.80;;
10920;SDS011;5513;50.580;8.818;2023-02-28T12:40:08;5.57;;;4.00;;
10920;SDS011;5513;50.580;8.818;2023-02-28T12:42:42;5.47;;;3.80;;
10920;SDS011;5513;50.580;8.818;2023-02-28T12:45:17;4.33;;;3.30;;
10920;SDS011;5513;50.580;8.818;2023-02-28T12:47:49;5.60;;;3.67;;
10920;SDS011;5513;50.580;8.818;2023-02-28T12:50:23;5.03;;;3.70;;
10920;SDS011;5513;50.580;8.818;2023-02-28T12:52:55;5.50;;;4.10;;
10920;SDS011;5513;50.580;8.818;2023-02-28T12:55:29;6.40;;;3.87;;
10920;SDS011;5513;50.580;8.818;2023-02-28T12:58:08;5.03;;;3.70;;
10920;SDS011;5513;50.580;8.818;2023-02-28T13:00:46;4.87;;;3.30;;
10920;SDS011;5513;50.580;8.818;2023-02-28T13:03:37;5.97;;;4.40;;
10920;SDS011;5513;50.580;8.818;2023-02-28T13:06:20;5.47;;;4.33;;
10920;SDS011;5513;50.580;8.818;2023-02-28T13:09:04;5.80;;;5.23;;
10920;SDS011;5513;50.580;8.818;2023-02-28T13:11:39;22.57;;;20.57;;
10920;SDS011;5513;50.580;8.818;2023-02-28T13:14:21;13.23;;;11.00;;
10920;SDS011;5513;50.580;8.818;2023-02-28T13:16:54;6.80;;;4.23;;
10920;SDS011;5513;50.580;8.818;2023-02-28T13:19:27;7.67;;;5.30;;
10920;SDS011;5513;50.580;8.818;2023-02-28T13:21:56;5.20;;;3.70;;
10920;SDS011;5513;50.580;8.818;2023-02-28T13:24:39;5.43;;;3.77;;
10920;SDS011;5513;50.580;8.818;2023-02-28T13:27:23;5.47;;;3.63;;
10920;SDS011;5513;50.580;8.818;2023-02-28T13:33:26;6.47;;;4.43;;
10920;SDS011;5513;50.580;8.818;2023-02-28T13:36:09;5.10;;;3.93;;
10920;SDS011;5513;50.580;8.818;2023-02-28T13:38:51;4.27;;;3.67;;
10920;SDS011;5513;50.580;8.818;2023-02-28T13:44:15;4.93;;;4.30;;
10920;SDS011;5513;50.580;8.818;2023-02-28T13:52:57;6.63;;;4.13;;
10920;SDS011;5513;50.580;8.818;2023-02-28T13:55:52;7.43;;;4.47;;
10920;SDS011;5513;50.580;8.818;2023-02-28T13:58:31;4.47;;;3.87;;
10920;SDS011;5513;50.580;8.818;2023-02-28T14:01:15;5.80;;;4.30;;
10920;SDS011;5513;50.580;8.818;2023-02-28T14:06:51;5.07;;;4.30;;
10920;SDS011;5513;50.580;8.818;2023-02-28T14:09:23;6.07;;;4.47;;
10920;SDS011;5513;50.580;8.818;2023-02-28T14:11:55;8.93;;;5.87;;
10920;SDS011;5513;50.580;8.818;2023-02-28T14:17:37;8.53;;;4.80;;
10920;SDS011;5513;50.580;8.818;2023-02-28T14:20:12;6.63;;;4.57;;
10920;SDS011;5513;50.580;8.818;2023-02-28T14:22:48;6.57;;;4.50;;
10920;SDS011;5513;50.580;8.818;2023-02-28T14:25:30;5.70;;;4.30;;
10920;SDS011;5513;50.580;8.818;2023-02-28T14:28:08;5.87;;;4.20;;
10920;SDS011;5513;50.580;8.818;2023-02-28T14:30:52;7.57;;;4.67;;
10920;SDS011;5513;50.580;8.818;2023-02-28T14:33:30;5.37;;;4.70;;
10920;SDS011;5513;50.580;8.818;2023-02-28T14:36:13;5.87;;;4.43;;
10920;SDS011;5513;50.580;8.818;2023-02-28T14:38:48;6.40;;;4.57;;
10920;SDS011;5513;50.580;8.818;2023-02-28T14:41:22;7.10;;;5.00;;
10920;SDS011;5513;50.580;8.818;2023-02-28T14:43:52;6.47;;;4.90;;
10920;SDS011;5513;50.580;8.818;2023-02-28T14:46:25;4.90;;;4.33;;
10920;SDS011;5513;50.580;8.818;2023-02-28T14:48:58;5.57;;;4.17;;
10920;SDS011;5513;50.580;8.818;2023-02-28T14:51:27;4.60;;;4.07;;
10920;SDS011;5513;50.580;8.818;2023-02-28T14:53:59;6.67;;;4.83;;
10920;SDS011;5513;50.580;8.818;2023-02-28T14:56:33;8.23;;;5.57;;
10920;SDS011;5513;50.580;8.818;2023-02-28T14:59:03;7.40;;;4.70;;
10920;SDS011;5513;50.580;8.818;2023-02-28T15:01:32;6.43;;;4.73;;
10920;SDS011;5513;50.580;8.818;2023-02-28T15:04:02;9.93;;;7.03;;
10920;SDS011;5513;50.580;8.818;2023-02-28T15:06:33;6.70;;;4.93;;
10920;SDS011;5513;50.580;8.818;2023-02-28T15:09:10;6.67;;;4.73;;
10920;SDS011;5513;50.580;8.818;2023-02-28T15:11:45;10.10;;;7.10;;
10920;SDS011;5513;50.580;8.818;2023-02-28T15:14:17;8.83;;;6.67;;
10920;SDS011;5513;50.580;8.818;2023-02-28T15:16:50;8.10;;;5.37;;
10920;SDS011;5513;50.580;8.818;2023-02-28T15:19:24;8.20;;;5.47;;
10920;SDS011;5513;50.580;8.818;2023-02-28T15:21:56;6.93;;;4.50;;
10920;SDS011;5513;50.580;8.818;2023-02-28T15:24:33;5.67;;;4.33;;
10920;SDS011;5513;50.580;8.818;2023-02-28T15:27:06;7.57;;;6.07;;
10920;SDS011;5513;50.580;8.818;2023-02-28T15:29:42;7.17;;;4.40;;
10920;SDS011;5513;50.580;8.818;2023-02-28T15:32:24;5.60;;;4.37;;
10920;SDS011;5513;50.580;8.818;2023-02-28T15:34:56;6.07;;;4.90;;
10920;SDS011;5513;50.580;8.818;2023-02-28T15:37:30;6.07;;;4.40;;
10920;SDS011;5513;50.580;8.818;2023-02-28T15:40:13;5.70;;;4.60;;
10920;SDS011;5513;50.580;8.818;2023-02-28T15:42:57;6.17;;;4.30;;
10920;SDS011;5513;50.580;8.818;2023-02-28T15:45:28;6.27;;;4.70;;
10920;SDS011;5513;50.580;8.818;2023-02-28T15:48:05;6.50;;;4.90;;
10920;SDS011;5513;50.580;8.818;2023-02-28T15:50:40;4.20;;;3.63;;
10920;SDS011;5513;50.580;8.818;2023-02-28T15:53:12;6.03;;;3.93;;
10920;SDS011;5513;50.580;8.818;2023-02-28T15:55:44;7.20;;;4.73;;
10920;SDS011;5513;50.580;8.818;2023-02-28T15:58:19;8.90;;;4.77;;
10920;SDS011;5513;50.580;8.818;2023-02-28T16:00:59;7.47;;;4.43;;
10920;SDS011;5513;50.580;8.818;2023-02-28T16:03:38;5.53;;;3.93;;
10920;SDS011;5513;50.580;8.818;2023-02-28T16:09:00;9.67;;;8.10;;
10920;SDS011;5513;50.580;8.818;2023-02-28T16:11:31;10.03;;;7.50;;